sensor_id;sensor_type;location;lat;lon;timestamp;pressure;altitude;pressure_sealevel;temperature;humidity
34328;BME280;20588;48.840;10.064;2023-07-13T00:02:03;96400.88;;;19.81;75.73
34328;BME280;20588;48.840;10.064;2023-07-13T00:04:29;96393.81;;;19.77;75.74
34328;BME280;20588;48.840;10.064;2023-07-13T00:06:55;96391.47;;;19.75;75.78
34328;BME280;20588;48.840;10.064;2023-07-13T00:09:22;96378.97;;;19.72;75.75
34328;BME280;20588;48.840;10.064;2023-07-13T00:11:54;96371.19;;;19.67;75.83
34328;BME280;20588;48.840;10.064;2023-07-13T00:14:21;96369.88;;;19.64;75.88
34328;BME280;20588;48.840;10.064;2023-07-13T00:16:48;96369.66;;;19.61;75.90
34328;BME280;20588;48.840;10.064;2023-07-13T00:19:14;96371.00;;;19.53;76.16
34328;BME280;20588;48.840;10.064;2023-07-13T00:21:41;96382.47;;;19.52;76.03
34328;BME280;20588;48.840;10.064;2023-07-13T00:24:09;96378.59;;;19.50;76.22
34328;BME280;20588;48.840;10.064;2023-07-13T00:26:39;96389.56;;;19.47;76.09
34328;BME280;20588;48.840;10.064;2023-07-13T00:29:05;96397.13;;;19.48;75.81
34328;BME280;20588;48.840;10.064;2023-07-13T00:31:34;96384.59;;;19.45;75.76
34328;BME280;20588;48.840;10.064;2023-07-13T00:34:02;96387.75;;;19.42;76.02
34328;BME280;20588;48.840;10.064;2023-07-13T00:36:29;96405.50;;;19.40;76.08
34328;BME280;20588;48.840;10.064;2023-07-13T00:38:55;96395.59;;;19.37;75.99
34328;BME280;20588;48.840;10.064;2023-07-13T00:41:21;96401.63;;;19.38;75.69
34328;BME280;20588;48.840;10.064;2023-07-13T00:43:47;96406.56;;;19.34;75.85
34328;BME280;20588;48.840;10.064;2023-07-13T00:46:20;96395.91;;;19.31;75.83
34328;BME280;20588;48.840;10.064;2023-07-13T00:48:48;96397.22;;;19.28;75.65
34328;BME280;20588;48.840;10.064;2023-07-13T00:51:19;96398.50;;;19.26;75.81
34328;BME280;20588;48.840;10.064;2023-07-13T00:53:47;96427.47;;;19.24;75.96
34328;BME280;20588;48.840;10.064;2023-07-13T00:56:13;96422.00;;;19.21;75.90
34328;BME280;20588;48.840;10.064;2023-07-13T00:58:40;96418.91;;;19.19;75.70
34328;BME280;20588;48.840;10.064;2023-07-13T01:01:06;96425.41;;;19.16;75.44
34328;BME280;20588;48.840;10.064;2023-07-13T01:03:32;96424.66;;;19.16;75.16
34328;BME280;20588;48.840;10.064;2023-07-13T01:06:00;96429.88;;;19.16;74.96
34328;BME280;20588;48.840;10.064;2023-07-13T01:08:26;96430.63;;;19.16;74.80
34328;BME280;20588;48.840;10.064;2023-07-13T01:10:57;96422.53;;;19.18;74.30
34328;BME280;20588;48.840;10.064;2023-07-13T01:13:24;96412.88;;;19.13;74.27
34328;BME280;20588;48.840;10.064;2023-07-13T01:15:51;96413.94;;;19.12;74.25
34328;BME280;20588;48.840;10.064;2023-07-13T01:21:02;96427.78;;;19.08;74.01
34328;BME280;20588;48.840;10.064;2023-07-13T01:23:30;96428.59;;;19.08;73.51
34328;BME280;20588;48.840;10.064;2023-07-13T01:25:57;96431.94;;;19.09;73.48
34328;BME280;20588;48.840;10.064;2023-07-13T01:28:25;96441.09;;;19.11;72.93
34328;BME280;20588;48.840;10.064;2023-07-13T01:30:53;96437.69;;;19.11;72.51
34328;BME280;20588;48.840;10.064;2023-07-13T01:33:20;96440.56;;;19.09;72.94
34328;BME280;20588;48.840;10.064;2023-07-13T01:35:47;96449.94;;;19.10;72.35
34328;BME280;20588;48.840;10.064;2023-07-13T01:38:17;96438.75;;;19.10;72.47
34328;BME280;20588;48.840;10.064;2023-07-13T01:40:44;96441.09;;;19.06;72.33
34328;BME280;20588;48.840;10.064;2023-07-13T01:43:10;96439.50;;;19.05;72.31
34328;BME280;20588;48.840;10.064;2023-07-13T01:45:37;96440.84;;;19.03;72.20
34328;BME280;20588;48.840;10.064;2023-07-13T01:48:03;96444.25;;;18.98;71.93
34328;BME280;20588;48.840;10.064;2023-07-13T01:50:30;96438.00;;;18.94;72.37
34328;BME280;20588;48.840;10.064;2023-07-13T01:52:56;96443.47;;;18.93;72.62
34328;BME280;20588;48.840;10.064;2023-07-13T01:55:22;96448.97;;;18.91;72.46
34328;BME280;20588;48.840;10.064;2023-07-13T01:57:49;96445.81;;;18.89;72.33
34328;BME280;20588;48.840;10.064;2023-07-13T02:00:15;96447.13;;;18.87;72.48
34328;BME280;20588;48.840;10.064;2023-07-13T02:02:41;96440.88;;;18.83;72.45
34328;BME280;20588;48.840;10.064;2023-07-13T02:05:08;96438.53;;;18.81;72.87
34328;BME280;20588;48.840;10.064;2023-07-13T02:07:34;96434.09;;;18.77;72.86
34328;BME280;20588;48.840;10.064;2023-07-13T02:10:00;96434.13;;;18.72;73.10
34328;BME280;20588;48.840;10.064;2023-07-13T02:12:26;96434.66;;;18.69;72.99
34328;BME280;20588;48.840;10.064;2023-07-13T02:14:53;96439.59;;;18.65;73.55
34328;BME280;20588;48.840;10.064;2023-07-13T02:17:19;96433.63;;;18.60;73.69
34328;BME280;20588;48.840;10.064;2023-07-13T02:19:45;96438.81;;;18.55;74.13
34328;BME280;20588;48.840;10.064;2023-07-13T02:22:11;96440.13;;;18.47;74.58
34328;BME280;20588;48.840;10.064;2023-07-13T02:24:37;96445.09;;;18.39;75.04
34328;BME280;20588;48.840;10.064;2023-07-13T02:27:04;96441.66;;;18.33;75.54
34328;BME280;20588;48.840;10.064;2023-07-13T02:29:30;96445.28;;;18.27;75.72
34328;BME280;20588;48.840;10.064;2023-07-13T02:31:56;96445.28;;;18.22;76.15
34328;BME280;20588;48.840;10.064;2023-07-13T02:34:23;96444.75;;;18.15;76.70
34328;BME280;20588;48.840;10.064;2023-07-13T02:36:49;96453.09;;;18.07;76.96
34328;BME280;20588;48.840;10.064;2023-07-13T02:39:15;96454.13;;;18.01;77.47
34328;BME280;20588;48.840;10.064;2023-07-13T02:41:41;96450.72;;;17.95;77.92
34328;BME280;20588;48.840;10.064;2023-07-13T02:44:07;96453.81;;;17.87;78.33
34328;BME280;20588;48.840;10.064;2023-07-13T02:46:36;96450.19;;;17.83;78.05
34328;BME280;20588;48.840;10.064;2023-07-13T02:49:02;96462.16;;;17.79;79.11
34328;BME280;20588;48.840;10.064;2023-07-13T02:51:28;96452.75;;;17.73;79.27
34328;BME280;20588;48.840;10.064;2023-07-13T02:53:55;96453.00;;;17.67;79.76
34328;BME280;20588;48.840;10.064;2023-07-13T02:56:25;96461.81;;;17.61;79.77
34328;BME280;20588;48.840;10.064;2023-07-13T02:58:51;96454.25;;;17.54;79.65
34328;BME280;20588;48.840;10.064;2023-07-13T03:01:18;96457.06;;;17.48;80.25
34328;BME280;20588;48.840;10.064;2023-07-13T03:03:45;96447.91;;;17.40;80.58
34328;BME280;20588;48.840;10.064;2023-07-13T03:06:12;96454.13;;;17.34;81.26
34328;BME280;20588;48.840;10.064;2023-07-13T03:08:39;96455.94;;;17.29;80.79
34328;BME280;20588;48.840;10.064;2023-07-13T03:11:08;96460.84;;;17.25;80.83
34328;BME280;20588;48.840;10.064;2023-07-13T03:13:35;96462.16;;;17.23;80.62
34328;BME280;20588;48.840;10.064;2023-07-13T03:16:01;96462.09;;;17.18;80.78
34328;BME280;20588;48.840;10.064;2023-07-13T03:18:28;96460.81;;;17.15;80.94
34328;BME280;20588;48.840;10.064;2023-07-13T03:20:54;96469.38;;;17.11;80.84
34328;BME280;20588;48.840;10.064;2023-07-13T03:23:21;96467.81;;;17.10;80.68
34328;BME280;20588;48.840;10.064;2023-07-13T03:25:48;96464.97;;;17.11;80.51
34328;BME280;20588;48.840;10.064;2023-07-13T03:28:14;96477.66;;;17.08;80.63
34328;BME280;20588;48.840;10.064;2023-07-13T03:30:41;96477.13;;;17.06;80.78
34328;BME280;20588;48.840;10.064;2023-07-13T03:33:07;96472.69;;;17.01;81.35
34328;BME280;20588;48.840;10.064;2023-07-13T03:35:34;96474.78;;;16.99;82.32
34328;BME280;20588;48.840;10.064;2023-07-13T03:38:01;96476.28;;;16.95;82.61
34328;BME280;20588;48.840;10.064;2023-07-13T03:40:28;96485.63;;;16.91;82.61
34328;BME280;20588;48.840;10.064;2023-07-13T03:42:54;96484.56;;;16.87;83.02
34328;BME280;20588;48.840;10.064;2023-07-13T03:45:20;96488.97;;;16.87;83.50
34328;BME280;20588;48.840;10.064;2023-07-13T03:47:46;96488.44;;;16.85;83.65
34328;BME280;20588;48.840;10.064;2023-07-13T03:50:12;96494.41;;;16.85;83.87
34328;BME280;20588;48.840;10.064;2023-07-13T03:52:38;96486.63;;;16.85;83.92
34328;BME280;20588;48.840;10.064;2023-07-13T03:55:05;96493.69;;;16.90;83.51
34328;BME280;20588;48.840;10.064;2023-07-13T03:57:32;96489.53;;;16.94;83.56
34328;BME280;20588;48.840;10.064;2023-07-13T03:59:58;96490.88;;;16.96;83.48
34328;BME280;20588;48.840;10.064;2023-07-13T04:02:24;96490.88;;;17.01;84.48
34328;BME280;20588;48.840;10.064;2023-07-13T04:04:50;96499.22;;;17.03;84.69
34328;BME280;20588;48.840;10.064;2023-07-13T04:07:16;96496.91;;;17.07;84.05
34328;BME280;20588;48.840;10.064;2023-07-13T04:09:42;96493.31;;;17.13;83.33
34328;BME280;20588;48.840;10.064;2023-07-13T04:12:08;96505.31;;;17.19;83.53
34328;BME280;20588;48.840;10.064;2023-07-13T04:14:35;96510.81;;;17.27;83.00
34328;BME280;20588;48.840;10.064;2023-07-13T04:17:01;96511.91;;;17.36;81.93
34328;BME280;20588;48.840;10.064;2023-07-13T04:19:27;96510.97;;;17.47;81.24
34328;BME280;20588;48.840;10.064;2023-07-13T04:21:53;96520.13;;;17.65;80.04
34328;BME280;20588;48.840;10.064;2023-07-13T04:24:19;96519.47;;;17.89;78.58
34328;BME280;20588;48.840;10.064;2023-07-13T04:26:45;96523.72;;;18.16;77.19
34328;BME280;20588;48.840;10.064;2023-07-13T04:29:11;96524.03;;;18.39;75.67
34328;BME280;20588;48.840;10.064;2023-07-13T04:31:37;96525.13;;;18.83;73.90
34328;BME280;20588;48.840;10.064;2023-07-13T04:34:03;96529.03;;;19.16;72.01
34328;BME280;20588;48.840;10.064;2023-07-13T04:36:29;96521.34;;;19.64;69.29
34328;BME280;20588;48.840;10.064;2023-07-13T04:38:55;96519.97;;;20.36;65.87
34328;BME280;20588;48.840;10.064;2023-07-13T04:41:22;96518.88;;;21.14;62.41
34328;BME280;20588;48.840;10.064;2023-07-13T04:43:48;96520.53;;;21.57;60.20
34328;BME280;20588;48.840;10.064;2023-07-13T04:46:16;96518.88;;;21.90;58.56
34328;BME280;20588;48.840;10.064;2023-07-13T04:48:46;96527.63;;;22.04;57.73
34328;BME280;20588;48.840;10.064;2023-07-13T04:51:12;96516.59;;;21.83;57.65
34328;BME280;20588;48.840;10.064;2023-07-13T04:53:38;96522.59;;;21.60;59.17
34328;BME280;20588;48.840;10.064;2023-07-13T04:56:05;96528.66;;;21.32;60.37
34328;BME280;20588;48.840;10.064;2023-07-13T04:58:31;96526.00;;;21.08;60.31
34328;BME280;20588;48.840;10.064;2023-07-13T05:01:01;96528.50;;;20.90;60.40
34328;BME280;20588;48.840;10.064;2023-07-13T05:03:29;96529.63;;;20.79;61.05
34328;BME280;20588;48.840;10.064;2023-07-13T05:05:56;96528.09;;;20.73;61.42
34328;BME280;20588;48.840;10.064;2023-07-13T05:08:23;96522.16;;;20.62;61.79
34328;BME280;20588;48.840;10.064;2023-07-13T05:10:50;96524.50;;;20.64;61.77
34328;BME280;20588;48.840;10.064;2023-07-13T05:13:16;96524.97;;;20.71;61.78
34328;BME280;20588;48.840;10.064;2023-07-13T05:15:42;96525.19;;;20.79;62.71
34328;BME280;20588;48.840;10.064;2023-07-13T05:18:08;96534.84;;;20.79;62.75
34328;BME280;20588;48.840;10.064;2023-07-13T05:20:34;96534.81;;;20.84;62.19
34328;BME280;20588;48.840;10.064;2023-07-13T05:23:00;96534.81;;;20.84;61.13
34328;BME280;20588;48.840;10.064;2023-07-13T05:25:26;96543.22;;;20.81;60.41
34328;BME280;20588;48.840;10.064;2023-07-13T05:27:53;96545.34;;;20.74;60.88
34328;BME280;20588;48.840;10.064;2023-07-13T05:30:19;96540.19;;;20.69;61.17
34328;BME280;20588;48.840;10.064;2023-07-13T05:32:45;96543.38;;;20.61;61.42
34328;BME280;20588;48.840;10.064;2023-07-13T05:35:11;96543.41;;;20.51;61.38
34328;BME280;20588;48.840;10.064;2023-07-13T05:37:38;96543.72;;;20.44;61.56
34328;BME280;20588;48.840;10.064;2023-07-13T05:40:05;96542.69;;;20.40;62.00
34328;BME280;20588;48.840;10.064;2023-07-13T05:42:31;96544.00;;;20.43;61.93
34328;BME280;20588;48.840;10.064;2023-07-13T05:44:57;96541.13;;;20.44;61.70
34328;BME280;20588;48.840;10.064;2023-07-13T05:47:23;96538.22;;;20.46;62.16
34328;BME280;20588;48.840;10.064;2023-07-13T05:49:49;96539.25;;;20.50;62.30
34328;BME280;20588;48.840;10.064;2023-07-13T05:52:15;96537.66;;;20.54;62.78
34328;BME280;20588;48.840;10.064;2023-07-13T05:54:42;96548.34;;;20.57;62.42
34328;BME280;20588;48.840;10.064;2023-07-13T05:57:08;96549.31;;;20.66;62.55
34328;BME280;20588;48.840;10.064;2023-07-13T05:59:35;96549.53;;;20.75;63.73
34328;BME280;20588;48.840;10.064;2023-07-13T06:02:01;96547.94;;;20.79;61.90
34328;BME280;20588;48.840;10.064;2023-07-13T06:04:27;96553.59;;;20.96;62.25
34328;BME280;20588;48.840;10.064;2023-07-13T06:06:53;96554.38;;;20.96;61.92
34328;BME280;20588;48.840;10.064;2023-07-13T06:09:19;96554.88;;;20.93;61.06
34328;BME280;20588;48.840;10.064;2023-07-13T06:11:45;96566.06;;;21.04;60.79
34328;BME280;20588;48.840;10.064;2023-07-13T06:14:11;96560.84;;;21.04;60.59
34328;BME280;20588;48.840;10.064;2023-07-13T06:16:37;96567.88;;;21.08;60.08
34328;BME280;20588;48.840;10.064;2023-07-13T06:19:03;96563.84;;;21.21;60.01
34328;BME280;20588;48.840;10.064;2023-07-13T06:21:29;96570.03;;;21.30;60.48
34328;BME280;20588;48.840;10.064;2023-07-13T06:23:55;96573.31;;;21.46;59.00
34328;BME280;20588;48.840;10.064;2023-07-13T06:26:22;96571.75;;;21.68;58.35
34328;BME280;20588;48.840;10.064;2023-07-13T06:28:48;96579.88;;;21.95;57.46
34328;BME280;20588;48.840;10.064;2023-07-13T06:31:15;96578.69;;;22.48;55.83
34328;BME280;20588;48.840;10.064;2023-07-13T06:33:41;96572.59;;;23.22;54.14
34328;BME280;20588;48.840;10.064;2023-07-13T06:36:08;96588.28;;;23.59;51.95
34328;BME280;20588;48.840;10.064;2023-07-13T06:38:35;96588.25;;;23.46;51.44
34328;BME280;20588;48.840;10.064;2023-07-13T06:41:01;96587.59;;;23.22;52.08
34328;BME280;20588;48.840;10.064;2023-07-13T06:43:27;96596.28;;;23.03;52.38
34328;BME280;20588;48.840;10.064;2023-07-13T06:45:55;96589.34;;;22.94;52.42
34328;BME280;20588;48.840;10.064;2023-07-13T06:48:22;96597.31;;;23.02;52.78
34328;BME280;20588;48.840;10.064;2023-07-13T06:50:49;96597.72;;;23.74;51.88
34328;BME280;20588;48.840;10.064;2023-07-13T06:53:18;96605.25;;;24.84;49.33
34328;BME280;20588;48.840;10.064;2023-07-13T06:55:45;96601.53;;;25.51;47.06
34328;BME280;20588;48.840;10.064;2023-07-13T06:58:12;96609.38;;;25.64;46.20
34328;BME280;20588;48.840;10.064;2023-07-13T07:00:38;96610.22;;;26.12;45.22
34328;BME280;20588;48.840;10.064;2023-07-13T07:03:06;96616.59;;;26.85;43.43
34328;BME280;20588;48.840;10.064;2023-07-13T07:05:32;96608.09;;;27.68;42.12
34328;BME280;20588;48.840;10.064;2023-07-13T07:07:59;96601.72;;;28.65;40.31
34328;BME280;20588;48.840;10.064;2023-07-13T07:10:26;96603.78;;;29.53;38.98
34328;BME280;20588;48.840;10.064;2023-07-13T07:12:52;96603.09;;;30.37;37.80
34328;BME280;20588;48.840;10.064;2023-07-13T07:15:19;96608.88;;;30.91;36.22
34328;BME280;20588;48.840;10.064;2023-07-13T07:17:45;96616.28;;;31.25;35.22
34328;BME280;20588;48.840;10.064;2023-07-13T07:20:11;96619.47;;;31.03;35.61
34328;BME280;20588;48.840;10.064;2023-07-13T07:22:37;96621.59;;;30.46;36.26
34328;BME280;20588;48.840;10.064;2023-07-13T07:25:04;96622.75;;;29.76;37.27
34328;BME280;20588;48.840;10.064;2023-07-13T07:27:30;96625.44;;;29.02;37.52
34328;BME280;20588;48.840;10.064;2023-07-13T07:29:56;96623.38;;;28.38;38.53
34328;BME280;20588;48.840;10.064;2023-07-13T07:32:23;96626.88;;;27.83;38.86
34328;BME280;20588;48.840;10.064;2023-07-13T07:34:49;96628.09;;;27.40;40.14
34328;BME280;20588;48.840;10.064;2023-07-13T07:37:15;96625.44;;;27.06;40.54
34328;BME280;20588;48.840;10.064;2023-07-13T07:39:43;96625.44;;;26.89;40.95
34328;BME280;20588;48.840;10.064;2023-07-13T07:42:10;96631.50;;;26.81;41.31
34328;BME280;20588;48.840;10.064;2023-07-13T07:44:39;96635.22;;;26.80;41.80
34328;BME280;20588;48.840;10.064;2023-07-13T07:47:06;96640.69;;;27.17;41.63
34328;BME280;20588;48.840;10.064;2023-07-13T07:49:33;96643.25;;;28.52;40.43
34328;BME280;20588;48.840;10.064;2023-07-13T07:51:59;96649.25;;;29.31;37.82
34328;BME280;20588;48.840;10.064;2023-07-13T07:54:25;96642.50;;;29.34;37.64
34328;BME280;20588;48.840;10.064;2023-07-13T07:56:51;96654.25;;;29.12;37.66
34328;BME280;20588;48.840;10.064;2023-07-13T07:59:17;96652.13;;;29.06;37.74
34328;BME280;20588;48.840;10.064;2023-07-13T08:01:43;96650.59;;;29.37;37.95
34328;BME280;20588;48.840;10.064;2023-07-13T08:04:12;96644.13;;;29.92;37.15
34328;BME280;20588;48.840;10.064;2023-07-13T08:06:38;96643.69;;;30.02;35.70
34328;BME280;20588;48.840;10.064;2023-07-13T08:09:04;96641.72;;;29.99;36.04
34328;BME280;20588;48.840;10.064;2023-07-13T08:11:30;96636.38;;;29.74;36.82
34328;BME280;20588;48.840;10.064;2023-07-13T08:13:56;96638.94;;;29.50;37.22
34328;BME280;20588;48.840;10.064;2023-07-13T08:16:23;96649.97;;;29.52;37.08
34328;BME280;20588;48.840;10.064;2023-07-13T08:18:49;96650.03;;;29.64;36.14
34328;BME280;20588;48.840;10.064;2023-07-13T08:21:15;96643.09;;;29.72;36.44
34328;BME280;20588;48.840;10.064;2023-07-13T08:23:41;96645.34;;;29.82;36.06
34328;BME280;20588;48.840;10.064;2023-07-13T08:26:09;96638.06;;;30.03;35.89
34328;BME280;20588;48.840;10.064;2023-07-13T08:28:35;96642.84;;;30.10;35.55
34328;BME280;20588;48.840;10.064;2023-07-13T08:31:06;96651.88;;;29.97;33.67
34328;BME280;20588;48.840;10.064;2023-07-13T08:33:34;96648.94;;;30.34;34.35
34328;BME280;20588;48.840;10.064;2023-07-13T08:36:01;96648.59;;;30.48;34.21
34328;BME280;20588;48.840;10.064;2023-07-13T08:38:27;96645.47;;;30.70;34.46
34328;BME280;20588;48.840;10.064;2023-07-13T08:40:56;96650.19;;;31.00;33.62
34328;BME280;20588;48.840;10.064;2023-07-13T08:43:30;96638.38;;;31.53;33.85
34328;BME280;20588;48.840;10.064;2023-07-13T08:46:20;96643.41;;;32.32;32.62
34328;BME280;20588;48.840;10.064;2023-07-13T08:48:52;96640.03;;;33.39;31.55
34328;BME280;20588;48.840;10.064;2023-07-13T08:56:45;96646.09;;;34.75;28.33
34328;BME280;20588;48.840;10.064;2023-07-13T08:59:16;96645.69;;;35.32;28.70
34328;BME280;20588;48.840;10.064;2023-07-13T09:04:56;96640.63;;;35.57;27.84
34328;BME280;20588;48.840;10.064;2023-07-13T09:07:42;96641.66;;;35.82;27.82
34328;BME280;20588;48.840;10.064;2023-07-13T09:11:08;96634.91;;;36.46;27.43
34328;BME280;20588;48.840;10.064;2023-07-13T09:13:48;96637.50;;;36.96;27.16
34328;BME280;20588;48.840;10.064;2023-07-13T09:16:16;96630.84;;;36.73;26.25
34328;BME280;20588;48.840;10.064;2023-07-13T09:18:47;96633.88;;;36.68;25.95
34328;BME280;20588;48.840;10.064;2023-07-13T09:21:22;96625.06;;;36.64;24.98
34328;BME280;20588;48.840;10.064;2023-07-13T09:23:54;96640.41;;;37.45;25.82
34328;BME280;20588;48.840;10.064;2023-07-13T09:26:23;96640.50;;;37.98;24.63
34328;BME280;20588;48.840;10.064;2023-07-13T09:29:03;96644.72;;;38.06;23.39
34328;BME280;20588;48.840;10.064;2023-07-13T09:31:44;96651.66;;;38.14;23.26
34328;BME280;20588;48.840;10.064;2023-07-13T09:34:13;96633.19;;;38.37;22.90
34328;BME280;20588;48.840;10.064;2023-07-13T09:36:39;96641.66;;;38.39;22.88
34328;BME280;20588;48.840;10.064;2023-07-13T09:41:40;96643.84;;;39.07;23.16
34328;BME280;20588;48.840;10.064;2023-07-13T09:44:15;96642.97;;;39.31;22.98
34328;BME280;20588;48.840;10.064;2023-07-13T09:46:53;96637.75;;;39.72;23.00
34328;BME280;20588;48.840;10.064;2023-07-13T09:49:24;96649.69;;;39.75;22.67
34328;BME280;20588;48.840;10.064;2023-07-13T09:52:10;96642.25;;;39.20;22.00
34328;BME280;20588;48.840;10.064;2023-07-13T09:54:37;96635.84;;;38.76;22.99
34328;BME280;20588;48.840;10.064;2023-07-13T10:00:00;96641.59;;;37.55;23.83
34328;BME280;20588;48.840;10.064;2023-07-13T10:02:29;96638.94;;;35.42;24.88
34328;BME280;20588;48.840;10.064;2023-07-13T10:04:58;96642.06;;;35.84;25.05
34328;BME280;20588;48.840;10.064;2023-07-13T10:07:24;96642.44;;;36.80;25.02
34328;BME280;20588;48.840;10.064;2023-07-13T10:09:55;96648.94;;;37.75;24.51
34328;BME280;20588;48.840;10.064;2023-07-13T10:12:22;96642.06;;;38.20;23.49
34328;BME280;20588;48.840;10.064;2023-07-13T10:14:56;96642.44;;;38.54;22.44
34328;BME280;20588;48.840;10.064;2023-07-13T10:17:32;96638.97;;;38.60;22.77
34328;BME280;20588;48.840;10.064;2023-07-13T10:20:01;96649.25;;;39.07;23.20
34328;BME280;20588;48.840;10.064;2023-07-13T10:22:56;96642.03;;;38.59;23.22
34328;BME280;20588;48.840;10.064;2023-07-13T10:25:28;96647.59;;;37.17;24.32
34328;BME280;20588;48.840;10.064;2023-07-13T10:28:12;96649.38;;;36.34;25.10
34328;BME280;20588;48.840;10.064;2023-07-13T10:30:43;96641.34;;;35.54;25.81
34328;BME280;20588;48.840;10.064;2023-07-13T10:33:13;96643.84;;;35.36;26.42
34328;BME280;20588;48.840;10.064;2023-07-13T10:35:42;96652.91;;;35.94;25.01
34328;BME280;20588;48.840;10.064;2023-07-13T10:38:14;96654.47;;;36.50;23.45
34328;BME280;20588;48.840;10.064;2023-07-13T10:41:02;96649.88;;;37.15;23.27
34328;BME280;20588;48.840;10.064;2023-07-13T10:43:42;96648.81;;;37.37;22.53
34328;BME280;20588;48.840;10.064;2023-07-13T10:46:13;96636.97;;;37.55;22.19
34328;BME280;20588;48.840;10.064;2023-07-13T10:48:42;96648.56;;;38.02;22.95
34328;BME280;20588;48.840;10.064;2023-07-13T10:51:12;96647.84;;;38.29;22.94
34328;BME280;20588;48.840;10.064;2023-07-13T10:53:39;96644.75;;;38.41;22.06
34328;BME280;20588;48.840;10.064;2023-07-13T10:59:11;96631.69;;;38.29;21.81
34328;BME280;20588;48.840;10.064;2023-07-13T11:04:31;96626.19;;;37.41;22.14
34328;BME280;20588;48.840;10.064;2023-07-13T11:07:17;96637.66;;;37.24;22.48
34328;BME280;20588;48.840;10.064;2023-07-13T11:09:59;96630.22;;;36.97;23.49
34328;BME280;20588;48.840;10.064;2023-07-13T11:13:29;96626.38;;;36.33;23.85
34328;BME280;20588;48.840;10.064;2023-07-13T11:15:13;96620.00;;;35.61;24.62
34328;BME280;20588;48.840;10.064;2023-07-13T11:17:49;96624.16;;;35.95;25.12
34328;BME280;20588;48.840;10.064;2023-07-13T11:22:50;96626.13;;;36.49;24.69
34328;BME280;20588;48.840;10.064;2023-07-13T11:25:30;96627.81;;;36.23;23.77
34328;BME280;20588;48.840;10.064;2023-07-13T11:33:22;96625.09;;;36.74;25.04
34328;BME280;20588;48.840;10.064;2023-07-13T11:36:04;96627.75;;;37.53;23.30
34328;BME280;20588;48.840;10.064;2023-07-13T11:38:39;96616.66;;;37.75;23.35
34328;BME280;20588;48.840;10.064;2023-07-13T11:41:22;96617.72;;;37.36;23.88
34328;BME280;20588;48.840;10.064;2023-07-13T11:43:54;96631.09;;;36.50;24.06
34328;BME280;20588;48.840;10.064;2023-07-13T11:46:26;96614.94;;;35.92;23.18
34328;BME280;20588;48.840;10.064;2023-07-13T11:48:54;96623.16;;;35.73;23.44
34328;BME280;20588;48.840;10.064;2023-07-13T11:51:29;96610.38;;;35.56;23.54
34328;BME280;20588;48.840;10.064;2023-07-13T11:54:23;96613.94;;;35.31;23.86
34328;BME280;20588;48.840;10.064;2023-07-13T11:56:49;96610.41;;;35.27;23.88
34328;BME280;20588;48.840;10.064;2023-07-13T11:59:16;96611.22;;;35.64;23.03
34328;BME280;20588;48.840;10.064;2023-07-13T12:01:47;96602.41;;;36.03;23.31
34328;BME280;20588;48.840;10.064;2023-07-13T12:04:33;96614.88;;;36.29;22.67
34328;BME280;20588;48.840;10.064;2023-07-13T12:07:16;96606.25;;;36.64;23.12
34328;BME280;20588;48.840;10.064;2023-07-13T12:09:43;96609.44;;;36.25;23.40
34328;BME280;20588;48.840;10.064;2023-07-13T12:12:16;96621.44;;;36.35;23.77
34328;BME280;20588;48.840;10.064;2023-07-13T12:14:43;96613.78;;;35.93;22.56
34328;BME280;20588;48.840;10.064;2023-07-13T12:17:19;96607.69;;;35.96;23.29
34328;BME280;20588;48.840;10.064;2023-07-13T12:19:45;96605.53;;;35.32;25.13
34328;BME280;20588;48.840;10.064;2023-07-13T12:22:14;96602.75;;;35.22;25.53
34328;BME280;20588;48.840;10.064;2023-07-13T12:24:42;96609.53;;;35.16;25.79
34328;BME280;20588;48.840;10.064;2023-07-13T12:29:53;96607.19;;;35.11;25.11
34328;BME280;20588;48.840;10.064;2023-07-13T12:32:25;96615.25;;;35.14;25.83
34328;BME280;20588;48.840;10.064;2023-07-13T12:34:53;96612.59;;;35.47;25.18
34328;BME280;20588;48.840;10.064;2023-07-13T12:37:20;96602.91;;;35.79;24.84
34328;BME280;20588;48.840;10.064;2023-07-13T12:39:48;96606.50;;;35.90;25.02
34328;BME280;20588;48.840;10.064;2023-07-13T12:47:42;96595.38;;;35.88;25.66
34328;BME280;20588;48.840;10.064;2023-07-13T12:50:15;96599.44;;;36.15;25.16
34328;BME280;20588;48.840;10.064;2023-07-13T12:52:44;96601.78;;;36.24;24.42
34328;BME280;20588;48.840;10.064;2023-07-13T12:55:17;96592.72;;;36.43;25.12
34328;BME280;20588;48.840;10.064;2023-07-13T12:57:54;96598.13;;;36.50;24.88
34328;BME280;20588;48.840;10.064;2023-07-13T13:02:51;96596.28;;;36.06;23.99
34328;BME280;20588;48.840;10.064;2023-07-13T13:05:17;96584.75;;;35.99;25.04
34328;BME280;20588;48.840;10.064;2023-07-13T13:07:44;96590.88;;;35.99;25.75
34328;BME280;20588;48.840;10.064;2023-07-13T13:10:13;96587.84;;;35.61;24.22
34328;BME280;20588;48.840;10.064;2023-07-13T13:12:41;96589.41;;;35.65;26.00
34328;BME280;20588;48.840;10.064;2023-07-13T13:15:11;96590.13;;;35.59;24.72
34328;BME280;20588;48.840;10.064;2023-07-13T13:17:38;96582.13;;;34.93;24.94
34328;BME280;20588;48.840;10.064;2023-07-13T13:20:19;96578.38;;;35.01;25.85
34328;BME280;20588;48.840;10.064;2023-07-13T13:22:46;96572.03;;;35.16;25.62
34328;BME280;20588;48.840;10.064;2023-07-13T13:25:13;96565.84;;;35.08;24.91
34328;BME280;20588;48.840;10.064;2023-07-13T13:27:41;96570.53;;;34.85;25.14
34328;BME280;20588;48.840;10.064;2023-07-13T13:30:13;96570.78;;;34.73;25.06
34328;BME280;20588;48.840;10.064;2023-07-13T13:32:44;96579.25;;;34.49;25.92
34328;BME280;20588;48.840;10.064;2023-07-13T13:35:18;96582.69;;;33.78;26.34
34328;BME280;20588;48.840;10.064;2023-07-13T13:37:46;96579.31;;;32.79;27.14
34328;BME280;20588;48.840;10.064;2023-07-13T13:40:21;96570.91;;;32.42;27.77